Terminal Aerodrome Forecast
Issued by NWS

Home | Current Version | Previous Version | Text Only | Print | Product List | Glossary On
Versions: 1 2 3 4 5 6 7 8 9 10 11 12 13 14 15
000
FTUS45 KABQ 202300
TAFAEG
TAF
KAEG 202336Z 2100/2124 12010KT P6SM VCTS BKN060CB
      TEMPO 2100/2101 VRB18G25KT -SHRA OVC050
     FM210200 VRB06KT P6SM SCT050 BKN090
     FM211000 VRB06KT P6SM FEW050 SCT100
     FM211900 18010KT P6SM VCTS SCT060CB BKN100=

USA.gov is the U.S. government's official web portal to all federal, state and local government web resources and services.